Time;durP1;ratioP1;P1;durP2;ratioP2;P2;SDS_P1;SDS_P2;PMS_P1;PMS_P2;Temp;Humidity;BMP_temperature;BMP_pressure;BME280_temperature;BME280_humidity;BME280_pressure;Samples;Min_cycle;Max_cycle;Signal;HPM_P1;HPM_P2
2022/11/20 00:00:16;;;;;;;22.85;11.30;;;;;;;4.29;86.29;99522.06;6120181;23;20032;-79
2022/11/20 00:02:43;;;;;;;24.73;10.95;;;;;;;4.28;87.16;99515.13;6143647;23;20022;-80
2022/11/20 00:05:10;;;;;;;23.42;12.23;;;;;;;4.21;87.92;99512.06;6144714;23;20210;-80
2022/11/20 00:07:37;;;;;;;24.48;12.27;;;;;;;4.22;88.83;99512.91;6119981;23;20025;-80
2022/11/20 00:10:04;;;;;;;25.52;12.10;;;;;;;4.22;89.03;99515.53;6119772;23;20025;-80
2022/11/20 00:12:31;;;;;;;22.40;11.73;;;;;;;4.22;88.48;99511.09;6120030;23;20457;-80
2022/11/20 00:14:57;;;;;;;24.40;11.95;;;;;;;4.29;87.76;99514.16;6119713;23;20022;-80
2022/11/20 00:17:24;;;;;;;24.30;12.23;;;;;;;4.25;87.80;99510.06;6168457;22;20056;-79
2022/11/20 00:19:51;;;;;;;23.48;11.85;;;;;;;4.29;87.70;99516.81;6143635;23;20021;-80
2022/11/20 00:22:17;;;;;;;22.23;11.40;;;;;;;4.27;88.25;99513.44;6142800;23;20080;-80
2022/11/20 00:24:44;;;;;;;21.83;11.38;;;;;;;4.27;88.39;99514.25;6143238;23;20022;-80
2022/11/20 00:27:11;;;;;;;26.77;11.20;;;;;;;4.25;88.23;99524.06;6120541;23;20393;-80
2022/11/20 00:29:38;;;;;;;26.65;12.75;;;;;;;4.23;89.31;99515.44;6144665;23;20036;-80
2022/11/20 00:32:04;;;;;;;21.80;11.70;;;;;;;4.27;88.52;99514.25;6168866;22;20413;-80
2022/11/20 00:34:31;;;;;;;23.77;12.02;;;;;;;4.28;89.04;99507.25;6119864;23;20360;-80
2022/11/20 00:36:58;;;;;;;25.83;11.75;;;;;;;4.25;88.36;99505.66;6168496;22;20393;-80
2022/11/20 00:39:24;;;;;;;22.83;11.75;;;;;;;4.26;88.35;99514.38;6169255;22;20040;-84
2022/11/20 00:41:51;;;;;;;20.67;10.52;;;;;;;4.27;88.52;99514.25;6144473;23;20026;-80
2022/11/20 00:44:18;;;;;;;21.88;11.55;;;;;;;4.28;88.08;99513.34;6168100;22;20043;-80
2022/11/20 00:46:44;;;;;;;26.10;13.02;;;;;;;4.23;89.10;99517.22;6144952;23;20017;-80
2022/11/20 00:49:11;;;;;;;22.92;11.52;;;;;;;4.24;89.46;99509.22;6144670;23;20021;-80
2022/11/20 00:51:38;;;;;;;25.13;11.95;;;;;;;4.30;89.04;99515.84;6167565;22;20513;-81
2022/11/20 00:54:05;;;;;;;22.98;12.63;;;;;;;4.28;89.14;99515.13;6144543;23;20013;-80
2022/11/20 00:56:31;;;;;;;24.95;12.00;;;;;;;4.27;89.21;99516.06;6095704;23;20025;-80
2022/11/20 00:59:00;;;;;;;21.92;11.73;;;;;;;4.28;89.32;99525.66;6119460;23;20056;-81
2022/11/20 01:01:29;;;;;;;24.15;11.95;;;;;;;4.30;89.46;99521.09;6144015;23;20357;-80
2022/11/20 01:03:59;;;;;;;23.63;12.25;;;;;;;4.30;89.81;99515.84;6144966;23;20473;-80
2022/11/20 01:06:26;;;;;;;25.75;12.40;;;;;;;4.28;89.73;99515.97;6119710;23;20025;-80
2022/11/20 01:08:56;;;;;;;22.58;11.13;;;;;;;4.30;89.67;99513.22;6119526;23;20021;-80
2022/11/20 01:11:26;;;;;;;24.42;11.98;;;;;;;4.28;90.02;99515.97;6118989;23;20025;-81
2022/11/20 01:13:54;;;;;;;22.15;10.93;;;;;;;4.25;90.40;99512.69;6143959;23;20017;-80
2022/11/20 01:16:23;;;;;;;24.38;11.07;;;;;;;4.28;89.82;99505.44;6168596;22;20026;-80
2022/11/20 01:18:52;;;;;;;24.08;11.48;;;;;;;4.26;88.64;99511.75;6118071;23;20028;-82
2022/11/20 01:21:24;;;;;;;21.60;11.02;;;;;;;4.24;89.57;99511.84;6071196;23;20017;-80
2022/11/20 01:23:51;;;;;;;24.83;12.13;;;;;;;4.26;88.99;99509.13;6092830;23;20473;-82
2022/11/20 01:26:21;;;;;;;27.40;12.35;;;;;;;4.26;89.92;99506.50;6143395;23;20393;-80
2022/11/20 01:28:48;;;;;;;23.23;11.63;;;;;;;4.34;89.42;99515.53;6090409;23;20029;-80
2022/11/20 01:31:21;;;;;;;22.98;11.60;;;;;;;4.33;89.17;99508.59;6113552;23;20390;-80
2022/11/20 01:33:50;;;;;;;24.42;10.95;;;;;;;4.27;89.72;99514.25;6116963;23;20064;-80
2022/11/20 01:36:18;;;;;;;23.80;11.52;;;;;;;4.28;89.80;99513.34;6119432;23;20520;-80
2022/11/20 01:38:44;;;;;;;24.83;11.85;;;;;;;4.33;89.12;99513.03;6090065;23;20029;-81
2022/11/20 01:43:20;;;;;;;23.52;11.77;;;;;;;4.31;89.20;99507.88;6088368;23;20021;-80
2022/11/20 01:44:02;;;;;;;22.60;11.52;;;;;;;4.31;89.03;99507.88;6044047;23;20030;-81
2022/11/20 01:46:33;;;;;;;23.88;11.23;;;;;;;4.33;89.41;99510.41;6118329;23;20040;-80
2022/11/20 01:49:16;;;;;;;22.55;11.82;;;;;;;4.28;90.20;99510.72;6116397;23;20021;-80
2022/11/20 01:51:59;;;;;;;21.67;10.90;;;;;;;4.24;89.06;99506.59;6090127;23;20029;-80
2022/11/20 01:54:33;;;;;;;20.92;11.80;;;;;;;4.29;88.70;99512.38;6145185;23;20032;-81
2022/11/20 01:57:00;;;;;;;21.75;11.32;;;;;;;4.33;88.66;99507.78;6143763;23;20401;-80
2022/11/20 01:59:28;;;;;;;23.63;11.48;;;;;;;4.34;88.76;99505.03;6093701;23;20022;-80
2022/11/20 02:01:55;;;;;;;21.27;11.13;;;;;;;4.37;89.16;99508.41;6118561;23;20017;-85
2022/11/20 02:04:22;;;;;;;19.70;10.40;;;;;;;4.38;88.40;99504.84;6144501;23;20022;-80
2022/11/20 02:06:53;;;;;;;23.17;11.30;;;;;;;4.38;88.95;99505.66;6143088;23;20100;-80
2022/11/20 02:09:20;;;;;;;25.45;12.30;;;;;;;4.37;90.16;99501.34;6170463;22;20032;-80
2022/11/20 02:11:47;;;;;;;21.67;11.25;;;;;;;4.38;90.51;99503.03;6147064;23;20044;-81
2022/11/20 02:14:14;;;;;;;23.35;11.82;;;;;;;4.38;90.85;99500.41;6172269;22;20018;-80
2022/11/20 02:16:45;;;;;;;22.33;11.50;;;;;;;4.31;91.65;99496.53;6170554;23;20100;-81
2022/11/20 02:19:28;;;;;;;24.52;12.50;;;;;;;4.24;91.11;99495.25;6195508;22;20096;-80
2022/11/20 02:22:14;;;;;;;23.10;12.40;;;;;;;4.31;90.90;99493.88;6121850;23;20025;-80
2022/11/20 02:24:42;;;;;;;22.08;11.07;;;;;;;4.35;89.96;99495.34;6098483;23;20044;-81
2022/11/20 02:27:12;;;;;;;23.13;11.93;;;;;;;4.34;90.54;99499.75;6122111;23;20441;-85
2022/11/20 02:29:51;;;;;;;20.23;10.35;;;;;;;4.35;90.15;99490.94;6171386;22;20093;-81
2022/11/20 02:32:20;;;;;;;22.25;11.15;;;;;;;4.37;91.07;99488.19;6171124;22;20048;-80
2022/11/20 02:34:47;;;;;;;24.17;11.52;;;;;;;4.38;91.13;99483.81;6170832;23;20531;-80
2022/11/20 02:37:14;;;;;;;25.52;12.05;;;;;;;4.34;91.90;99480.53;6170768;22;20014;-80
2022/11/20 02:39:41;;;;;;;21.25;11.23;;;;;;;4.39;91.70;99483.69;6146914;23;20021;-80
2022/11/20 02:42:08;;;;;;;24.95;11.73;;;;;;;4.41;90.76;99481.78;6170225;22;20028;-80
2022/11/20 02:44:35;;;;;;;25.15;12.25;;;;;;;4.37;90.84;99476.84;6169086;23;20581;-80
2022/11/20 02:47:02;;;;;;;24.05;12.30;;;;;;;4.40;90.57;99482.75;6096462;23;20034;-80
2022/11/20 02:49:28;;;;;;;24.30;12.10;;;;;;;4.42;90.79;99475.59;6146744;23;20013;-80
2022/11/20 02:51:55;;;;;;;21.38;11.45;;;;;;;4.41;90.50;99478.34;6147370;23;20516;-81
2022/11/20 02:54:22;;;;;;;25.10;12.55;;;;;;;4.41;90.75;99476.53;6145385;23;20528;-81
2022/11/20 02:56:49;;;;;;;23.90;11.77;;;;;;;4.40;90.74;99476.63;6121088;23;20041;-80
2022/11/20 02:59:16;;;;;;;22.52;12.30;;;;;;;4.42;89.80;99474.75;6144333;23;20066;-80
2022/11/20 03:01:43;;;;;;;22.58;12.25;;;;;;;4.41;90.18;99473.06;6144311;23;20035;-80
2022/11/20 03:04:10;;;;;;;23.38;11.65;;;;;;;4.42;90.34;99477.38;6121430;23;20049;-80
2022/11/20 03:06:37;;;;;;;22.33;11.88;;;;;;;4.46;90.16;99470.97;6096298;23;20028;-80
2022/11/20 03:09:03;;;;;;;23.08;11.82;;;;;;;4.44;90.04;99470.22;6120152;23;20043;-80
2022/11/20 03:11:30;;;;;;;26.58;13.23;;;;;;;4.45;89.17;99464.00;6144632;23;20027;-80
2022/11/20 03:13:57;;;;;;;27.10;13.05;;;;;;;4.45;89.25;99470.13;6145913;23;20349;-80
2022/11/20 03:16:24;;;;;;;24.67;12.95;;;;;;;4.44;89.32;99463.19;6145805;23;20028;-80
2022/11/20 03:18:52;;;;;;;21.90;11.65;;;;;;;4.44;89.08;99465.81;6096082;23;20022;-80
2022/11/20 03:21:19;;;;;;;25.38;12.27;;;;;;;4.44;89.31;99464.97;6168515;23;20064;-80
2022/11/20 03:23:46;;;;;;;26.30;13.32;;;;;;;4.42;89.67;99459.81;6169914;23;20100;-83
2022/11/20 03:26:18;;;;;;;25.75;11.80;;;;;;;4.42;89.25;99464.22;6145679;23;20025;-80
2022/11/20 03:28:53;;;;;;;24.77;13.07;;;;;;;4.36;89.87;99462.88;6119966;23;20025;-81
2022/11/20 03:31:22;;;;;;;26.70;12.25;;;;;;;4.36;90.14;99465.50;6143815;23;20029;-81
2022/11/20 03:33:50;;;;;;;30.15;12.88;;;;;;;4.45;89.48;99459.63;6170153;22;20088;-81
2022/11/20 03:36:18;;;;;;;26.55;12.93;;;;;;;4.41;89.57;99465.19;6145193;23;20029;-80
2022/11/20 03:38:45;;;;;;;28.42;13.20;;;;;;;4.39;90.04;99454.78;6144653;23;20382;-80
2022/11/20 03:41:21;;;;;;;28.98;13.20;;;;;;;4.35;90.70;99454.16;6144591;23;20101;-80
2022/11/20 03:43:49;;;;;;;34.80;13.40;;;;;;;4.33;90.33;99458.66;6144203;23;20036;-83
2022/11/20 03:46:16;;;;;;;27.20;12.98;;;;;;;4.38;90.19;99458.34;6170057;22;20022;-80
2022/11/20 03:48:43;;;;;;;27.35;13.05;;;;;;;4.37;90.67;99456.66;6144607;23;20342;-81
2022/11/20 03:51:26;;;;;;;31.52;13.70;;;;;;;4.43;89.45;99456.25;6120090;23;20037;-80
2022/11/20 03:53:54;;;;;;;26.50;13.98;;;;;;;4.37;90.16;99464.53;6119117;23;20023;-80
2022/11/20 03:56:26;;;;;;;27.38;13.23;;;;;;;4.31;90.14;99454.47;6145070;23;20022;-80
2022/11/20 03:58:53;;;;;;;32.22;12.90;;;;;;;4.37;89.94;99455.81;6144295;23;20018;-80
2022/11/20 04:01:22;;;;;;;27.85;12.82;;;;;;;4.32;91.00;99462.22;6169595;22;20945;-80
2022/11/20 04:03:49;;;;;;;25.30;12.75;;;;;;;4.33;90.72;99460.47;6194392;23;20057;-80
2022/11/20 04:06:18;;;;;;;27.00;11.93;;;;;;;4.33;90.33;99452.56;6120562;23;20017;-80
2022/11/20 04:08:45;;;;;;;31.05;13.55;;;;;;;4.33;90.68;99453.41;6167768;23;20021;-79
2022/11/20 04:11:26;;;;;;;28.92;13.45;;;;;;;4.30;90.88;99453.63;6098885;23;20026;-80
2022/11/20 04:13:55;;;;;;;31.23;12.98;;;;;;;4.29;91.25;99456.34;6167702;23;20029;-80
2022/11/20 04:16:23;;;;;;;26.88;11.98;;;;;;;4.34;91.08;99460.34;6145647;23;20441;-80
2022/11/20 04:18:54;;;;;;;25.55;12.80;;;;;;;4.28;92.29;99454.69;6096126;23;20021;-80
2022/11/20 04:21:22;;;;;;;26.50;13.18;;;;;;;4.33;91.67;99455.22;6143918;23;20044;-80
2022/11/20 04:23:50;;;;;;;28.17;12.80;;;;;;;4.35;91.86;99454.16;6144052;23;20346;-80
2022/11/20 04:26:17;;;;;;;29.55;13.02;;;;;;;4.39;91.08;99448.69;6120066;23;20026;-80
2022/11/20 04:28:44;;;;;;;27.58;13.45;;;;;;;4.41;90.52;99449.41;6169215;22;20045;-80
2022/11/20 04:31:14;;;;;;;27.20;12.73;;;;;;;4.35;91.01;99453.28;6168334;22;20088;-80
2022/11/20 04:33:40;;;;;;;24.85;11.13;;;;;;;4.36;91.15;99444.47;6095104;23;20021;-80
2022/11/20 04:36:18;;;;;;;27.23;12.98;;;;;;;4.32;91.84;99443.81;6193186;23;20022;-80
2022/11/20 04:38:45;;;;;;;25.23;12.30;;;;;;;4.34;92.60;99438.47;6119221;23;20100;-80
2022/11/20 04:41:16;;;;;;;24.88;11.43;;;;;;;4.34;93.09;99444.56;6119460;23;20686;-80
2022/11/20 04:43:51;;;;;;;26.67;12.07;;;;;;;4.39;92.82;99438.16;6168866;23;20021;-80
2022/11/20 04:46:19;;;;;;;27.25;12.35;;;;;;;4.43;93.15;99444.91;6071237;23;20342;-81
2022/11/20 04:48:47;;;;;;;30.42;12.35;;;;;;;4.46;92.95;99444.69;6169512;23;22334;-80
2022/11/20 04:51:13;;;;;;;23.08;11.85;;;;;;;4.46;92.88;99442.06;6143273;23;20032;-80
2022/11/20 04:53:40;;;;;;;25.88;12.57;;;;;;;4.47;93.24;99441.94;6143677;23;20022;-80
2022/11/20 04:56:08;;;;;;;25.73;11.05;;;;;;;4.48;93.05;99438.38;6165157;22;20017;-80
2022/11/20 04:58:35;;;;;;;20.25;10.32;;;;;;;4.46;92.92;99442.88;6167943;23;20381;-80
2022/11/20 05:01:03;;;;;;;24.83;11.05;;;;;;;4.40;92.41;99443.31;6168430;22;20033;-80
2022/11/20 05:03:30;;;;;;;32.92;14.45;;;;;;;4.39;92.26;99441.63;6143405;23;20100;-80
2022/11/20 05:06:02;;;;;;;34.35;12.20;;;;;;;4.37;92.87;99440.88;6144167;23;20037;-80
2022/11/20 05:08:30;;;;;;;28.48;11.80;;;;;;;4.32;93.23;99438.56;6143864;23;20536;-80
2022/11/20 05:11:04;;;;;;;25.65;11.57;;;;;;;4.34;92.65;99443.72;6144576;23;20026;-80
2022/11/20 05:13:31;;;;;;;25.33;10.95;;;;;;;4.33;92.89;99436.81;6141791;23;20017;-81
2022/11/20 05:16:06;;;;;;;28.58;13.40;;;;;;;4.28;92.82;99434.50;6143817;23;20349;-79
2022/11/20 05:18:34;;;;;;;26.08;11.18;;;;;;;4.36;92.56;99428.69;6093807;23;20013;-80
2022/11/20 05:21:01;;;;;;;27.45;12.07;;;;;;;4.35;93.07;99429.63;6193550;23;20100;-81
2022/11/20 05:23:29;;;;;;;22.73;10.90;;;;;;;4.34;93.79;99433.22;6168925;22;20080;-80
2022/11/20 05:25:56;;;;;;;25.10;11.05;;;;;;;4.33;93.66;99426.28;6142965;23;20029;-80
2022/11/20 05:28:26;;;;;;;25.83;11.60;;;;;;;4.36;93.63;99418.19;6143236;23;20350;-80
2022/11/20 05:30:53;;;;;;;22.92;10.98;;;;;;;4.42;93.60;99416.91;6168512;23;20032;-80
2022/11/20 05:33:20;;;;;;;24.73;10.77;;;;;;;4.46;94.04;99415.75;6168905;22;20322;-80
2022/11/20 05:35:47;;;;;;;28.20;11.52;;;;;;;4.49;93.71;99418.16;6118268;23;20018;-80
2022/11/20 05:38:14;;;;;;;26.45;11.43;;;;;;;4.54;93.78;99410.81;6119578;23;20484;-80
2022/11/20 05:40:41;;;;;;;20.20;10.68;;;;;;;4.57;93.93;99418.47;6144305;23;20032;-80
2022/11/20 05:43:08;;;;;;;20.48;9.85;;;;;;;4.57;94.26;99415.84;6144001;23;20021;-80
2022/11/20 05:45:35;;;;;;;19.58;9.75;;;;;;;4.57;94.68;99411.41;6118672;23;20029;-81
2022/11/20 05:48:01;;;;;;;16.75;8.60;;;;;;;4.62;93.91;99407.63;6144157;23;20484;-80
2022/11/20 05:50:28;;;;;;;15.52;7.72;;;;;;;4.66;94.07;99394.16;6193404;23;20032;-80
2022/11/20 05:52:58;;;;;;;14.23;7.68;;;;;;;4.71;93.74;99401.72;6168402;23;20441;-84
2022/11/20 05:55:25;;;;;;;12.57;6.47;;;;;;;4.73;94.49;99400.66;6142788;23;20476;-84
2022/11/20 05:57:53;;;;;;;15.43;7.22;;;;;;;4.78;94.39;99405.56;6143734;23;20021;-80
2022/11/20 06:00:20;;;;;;;13.75;6.60;;;;;;;4.79;94.88;99417.81;6167145;23;20350;-80
2022/11/20 06:02:47;;;;;;;15.98;6.88;;;;;;;4.77;94.81;99412.63;6165563;23;20512;-80
2022/11/20 06:05:14;;;;;;;17.42;7.78;;;;;;;4.71;95.01;99418.34;6144002;23;20101;-80
2022/11/20 06:07:41;;;;;;;14.50;7.57;;;;;;;4.70;94.94;99421.06;6143262;23;20022;-80
2022/11/20 06:10:08;;;;;;;17.80;8.32;;;;;;;4.68;94.88;99421.19;6192567;22;20025;-81
2022/11/20 06:12:34;;;;;;;20.90;10.02;;;;;;;4.66;94.81;99417.84;6143421;23;20021;-80
2022/11/20 06:15:01;;;;;;;23.48;10.77;;;;;;;4.66;94.53;99425.72;6143719;23;20057;-80
2022/11/20 06:17:28;;;;;;;26.60;11.80;;;;;;;4.64;94.28;99422.34;6143336;23;20029;-80
2022/11/20 06:19:54;;;;;;;21.70;10.52;;;;;;;4.64;94.88;99413.63;6193281;22;20072;-80
2022/11/20 06:22:21;;;;;;;23.10;10.13;;;;;;;4.66;94.72;99415.19;6143227;23;20457;-80
2022/11/20 06:24:48;;;;;;;23.50;10.98;;;;;;;4.67;94.83;99411.59;6143728;23;20528;-80
2022/11/20 06:27:15;;;;;;;22.48;11.43;;;;;;;4.67;95.07;99413.41;6167784;22;20029;-80
2022/11/20 06:29:42;;;;;;;21.95;10.00;;;;;;;4.65;95.09;99416.13;6143604;23;20025;-80
2022/11/20 06:32:09;;;;;;;19.77;9.38;;;;;;;4.69;95.09;99416.78;6168538;23;20493;-80
2022/11/20 06:34:35;;;;;;;21.38;9.48;;;;;;;4.71;95.30;99415.72;6142721;23;20458;-80
2022/11/20 06:37:02;;;;;;;19.17;9.27;;;;;;;4.72;96.08;99416.56;6192870;23;20017;-80
2022/11/20 06:39:29;;;;;;;21.08;10.25;;;;;;;4.75;95.62;99413.69;6168164;23;20025;-79
2022/11/20 06:41:57;;;;;;;22.58;11.02;;;;;;;4.72;96.51;99419.19;6118822;23;20025;-80
2022/11/20 06:44:25;;;;;;;21.23;9.57;;;;;;;4.73;96.25;99413.81;6168098;22;20092;-80
2022/11/20 06:46:52;;;;;;;20.80;9.55;;;;;;;4.77;95.44;99414.44;6192567;23;20020;-81
2022/11/20 06:49:18;;;;;;;21.60;9.98;;;;;;;4.74;95.79;99419.91;6193609;23;20025;-80
2022/11/20 06:51:45;;;;;;;22.67;10.18;;;;;;;4.75;95.71;99418.94;6118003;23;20487;-80
2022/11/20 06:54:12;;;;;;;21.52;10.32;;;;;;;4.78;95.60;99418.72;6167220;22;20028;-83
2022/11/20 06:56:39;;;;;;;20.85;9.50;;;;;;;4.79;96.31;99417.81;6194025;23;20062;-80
2022/11/20 06:59:06;;;;;;;21.98;10.43;;;;;;;4.83;95.87;99415.78;6144687;23;20084;-80
2022/11/20 07:01:34;;;;;;;26.70;13.57;;;;;;;4.86;95.74;99415.56;6144968;23;20028;-80
2022/11/20 07:04:02;;;;;;;25.10;14.23;;;;;;;4.88;95.68;99414.50;6120802;23;20432;-80
2022/11/20 07:06:29;;;;;;;29.48;15.05;;;;;;;4.89;95.59;99400.41;6120502;23;20354;-80
2022/11/20 07:08:56;;;;;;;23.95;12.30;;;;;;;4.91;95.91;99400.28;6144702;23;20096;-80
2022/11/20 07:11:23;;;;;;;26.17;13.52;;;;;;;4.92;95.96;99404.59;6169114;22;20052;-80
2022/11/20 07:13:50;;;;;;;20.75;10.68;;;;;;;4.94;95.93;99402.72;6169463;23;20072;-80
2022/11/20 07:16:17;;;;;;;21.10;10.35;;;;;;;4.90;96.31;99409.97;6144864;23;20049;-80
2022/11/20 07:18:43;;;;;;;18.80;9.95;;;;;;;4.91;96.19;99410.81;6169709;22;20021;-80
2022/11/20 07:21:16;;;;;;;19.23;9.98;;;;;;;4.92;96.09;99400.19;6166683;23;20021;-81
2022/11/20 07:23:43;;;;;;;18.38;8.68;;;;;;;4.94;96.26;99405.34;6144651;23;20018;-80
2022/11/20 07:26:10;;;;;;;19.95;10.20;;;;;;;4.94;96.67;99424.59;6169552;23;20096;-81
2022/11/20 07:28:38;;;;;;;19.63;8.23;;;;;;;4.97;96.82;99420.91;6142934;23;20133;-81
2022/11/20 07:31:06;;;;;;;13.75;6.95;;;;;;;4.93;96.71;99425.53;6119623;23;20024;-80
2022/11/20 07:33:33;;;;;;;18.42;8.68;;;;;;;4.93;96.93;99414.16;6094895;23;20319;-81
2022/11/20 07:36:00;;;;;;;20.95;10.02;;;;;;;4.93;96.93;99407.09;6143669;23;20109;-81
2022/11/20 07:38:27;;;;;;;19.48;8.90;;;;;;;4.96;96.83;99408.69;6143836;23;20096;-80
2022/11/20 07:40:55;;;;;;;17.65;8.82;;;;;;;4.98;96.75;99412.03;6193232;23;20025;-80
2022/11/20 07:43:22;;;;;;;20.23;9.85;;;;;;;5.00;96.66;99418.88;6169134;23;20487;-80
2022/11/20 07:45:49;;;;;;;18.42;9.18;;;;;;;5.02;97.12;99416.16;6145142;23;20013;-81
2022/11/20 07:48:15;;;;;;;16.25;7.85;;;;;;;5.05;97.01;99415.91;6193668;23;20380;-80
2022/11/20 07:50:42;;;;;;;17.40;8.15;;;;;;;5.08;96.97;99415.69;6194528;23;20022;-81
2022/11/20 07:53:09;;;;;;;16.40;9.13;;;;;;;5.10;96.97;99420.84;6145100;23;20348;-79
2022/11/20 07:55:36;;;;;;;15.07;8.13;;;;;;;5.12;97.34;99413.69;6169846;23;20021;-79
2022/11/20 07:58:02;;;;;;;16.77;8.60;;;;;;;5.14;97.41;99419.66;6143242;23;20025;-79
2022/11/20 08:00:29;;;;;;;15.07;7.25;;;;;;;5.15;97.24;99409.03;6194076;23;20021;-79
2022/11/20 08:02:56;;;;;;;14.05;7.40;;;;;;;5.20;97.23;99411.34;6168146;23;20398;-79
2022/11/20 08:05:22;;;;;;;11.05;6.32;;;;;;;5.25;96.76;99411.00;6193407;23;20028;-79
2022/11/20 08:07:49;;;;;;;11.07;6.13;;;;;;;5.29;96.53;99409.81;6168711;23;20045;-80
2022/11/20 08:10:16;;;;;;;8.57;5.28;;;;;;;5.33;96.53;99413.91;6169275;23;20026;-80
2022/11/20 08:15:34;;;;;;;10.57;5.05;;;;;;;5.39;96.76;99410.81;6138584;23;20064;-81
2022/11/20 08:18:12;;;;;;;8.77;5.45;;;;;;;5.40;96.65;99415.16;6120245;23;20013;-81
2022/11/20 08:20:57;;;;;;;8.40;5.40;;;;;;;5.46;96.08;99419.13;6116173;23;20056;-81
2022/11/20 08:23:24;;;;;;;10.02;5.97;;;;;;;5.48;96.04;99422.47;6146633;23;20897;-80
2022/11/20 08:25:51;;;;;;;8.20;5.78;;;;;;;5.51;96.36;99422.25;6143806;23;20346;-81
2022/11/20 08:28:18;;;;;;;6.00;4.22;;;;;;;5.53;96.14;99412.44;6192490;23;20017;-81
2022/11/20 08:30:49;;;;;;;7.82;4.43;;;;;;;5.55;96.17;99418.44;6168512;23;20044;-81
2022/11/20 08:33:17;;;;;;;8.23;4.70;;;;;;;5.57;95.98;99433.19;6168121;23;20038;-81
2022/11/20 08:35:44;;;;;;;9.30;4.47;;;;;;;5.56;96.94;99426.22;6194446;23;20017;-80
2022/11/20 08:38:10;;;;;;;5.45;4.22;;;;;;;5.59;97.20;99419.88;6119598;23;20017;-81
2022/11/20 08:40:37;;;;;;;11.10;6.38;;;;;;;5.63;96.96;99431.88;6167660;23;20060;-81
2022/11/20 08:43:04;;;;;;;10.05;5.78;;;;;;;5.66;96.42;99429.00;6193856;23;20096;-80
2022/11/20 08:45:31;;;;;;;7.78;4.32;;;;;;;5.69;96.50;99430.56;6168785;23;20026;-80
2022/11/20 08:48:03;;;;;;;4.95;3.63;;;;;;;5.69;96.37;99431.41;6166548;23;20025;-80
2022/11/20 08:50:31;;;;;;;6.50;4.22;;;;;;;5.73;96.73;99437.31;6192596;22;20025;-80
2022/11/20 08:53:05;;;;;;;7.65;4.65;;;;;;;5.70;96.75;99435.75;6144669;23;20150;-80
2022/11/20 08:55:32;;;;;;;7.03;4.45;;;;;;;5.74;96.44;99439.81;6154717;23;20028;-80
2022/11/20 08:58:03;;;;;;;7.63;4.90;;;;;;;5.76;95.82;99434.44;6194421;23;20033;-80
2022/11/20 09:00:30;;;;;;;5.80;4.18;;;;;;;5.77;96.20;99441.38;6093321;23;20029;-79
2022/11/20 09:02:58;;;;;;;6.22;3.97;;;;;;;5.77;97.33;99439.56;6193764;23;20048;-79
2022/11/20 09:05:25;;;;;;;7.35;4.68;;;;;;;5.72;100.00;99444.34;6120462;23;20084;-80
2022/11/20 09:07:51;;;;;;;6.72;4.07;;;;;;;5.78;97.90;99446.53;6192609;22;20114;-80
2022/11/20 09:10:18;;;;;;;9.25;3.88;;;;;;;5.80;96.91;99444.63;6143795;23;20093;-80
2022/11/20 09:12:52;;;;;;;6.78;4.28;;;;;;;5.82;97.15;99449.78;6166246;23;20024;-81
2022/11/20 09:15:19;;;;;;;6.38;4.43;;;;;;;5.83;96.82;99452.31;6192030;23;20013;-79
2022/11/20 09:17:56;;;;;;;5.85;4.20;;;;;;;5.83;97.95;99451.47;6145486;23;20079;-80
2022/11/20 09:20:23;;;;;;;7.93;4.35;;;;;;;5.86;97.11;99449.44;6167963;23;20029;-79
2022/11/20 09:22:50;;;;;;;6.88;4.40;;;;;;;5.88;98.07;99444.91;6168047;23;20021;-79
2022/11/20 09:25:17;;;;;;;4.50;3.83;;;;;;;5.88;98.93;99446.69;6192293;23;20033;-79
2022/11/20 09:27:45;;;;;;;7.07;4.80;;;;;;;5.90;99.97;99457.09;6193227;23;20053;-79
2022/11/20 09:30:15;;;;;;;5.55;3.20;;;;;;;5.92;98.87;99447.28;6144644;23;20029;-83
2022/11/20 09:32:43;;;;;;;5.45;3.55;;;;;;;5.92;100.00;99456.03;6143655;23;20021;-79
2022/11/20 09:35:10;;;;;;;4.90;3.45;;;;;;;5.93;98.57;99449.81;6180396;23;20025;-79
2022/11/20 09:37:37;;;;;;;6.82;3.97;;;;;;;5.95;98.56;99455.81;6138087;23;20028;-79
2022/11/20 09:40:04;;;;;;;6.28;4.13;;;;;;;5.96;98.36;99451.41;6139135;23;20477;-79
2022/11/20 09:42:41;;;;;;;6.35;3.60;;;;;;;5.94;98.24;99461.22;6140695;23;20084;-79
2022/11/20 09:45:36;;;;;;;4.47;3.40;;;;;;;5.92;97.99;99453.41;6167018;23;20037;-80
2022/11/20 09:48:18;;;;;;;5.22;3.63;;;;;;;5.91;98.65;99454.38;6122154;23;20093;-79
2022/11/20 09:50:56;;;;;;;7.75;4.28;;;;;;;5.93;98.62;99462.13;6141472;23;20020;-81
2022/11/20 09:54:00;;;;;;;6.72;3.95;;;;;;;5.92;97.71;99473.66;6166084;23;20056;-79
2022/11/20 09:56:26;;;;;;;;;;;;;;;5.84;97.66;99466.31;6143496;23;20096;-80
2022/11/20 09:58:59;;;;;;;6.78;5.05;;;;;;;5.93;97.41;99456.88;6168054;23;19917;-80
2022/11/20 10:01:30;;;;;;;5.55;3.88;;;;;;;5.95;97.75;99457.63;6142245;23;20466;-78
2022/11/20 10:04:06;;;;;;;7.40;4.53;;;;;;;5.95;98.29;99455.81;6141072;23;20052;-78
2022/11/20 10:06:37;;;;;;;7.57;4.80;;;;;;;6.00;97.48;99453.69;6166366;23;20393;-79
2022/11/20 10:09:10;;;;;;;10.32;5.70;;;;;;;5.99;97.89;99459.09;6167680;23;20112;-79
2022/11/20 10:12:02;;;;;;;10.43;4.90;;;;;;;5.95;98.86;99463.72;6167260;23;20484;-78
2022/11/20 10:14:51;;;;;;;5.97;4.33;;;;;;;6.01;97.79;99462.47;6117730;23;20092;-79
2022/11/20 10:17:53;;;;;;;10.05;6.28;;;;;;;5.97;99.52;99456.56;6167620;23;20025;-79
2022/11/20 10:20:30;;;;;;;14.18;6.28;;;;;;;6.00;98.88;99453.69;6006390;23;20026;-81
2022/11/20 10:23:18;;;;;;;8.80;5.35;;;;;;;6.00;99.43;99458.13;6039127;23;20554;-80
2022/11/20 10:26:02;;;;;;;8.57;5.82;;;;;;;6.04;100.00;99456.94;6070881;23;20518;-81
2022/11/20 10:28:44;;;;;;;11.60;5.97;;;;;;;6.02;99.11;99459.69;6113819;23;20076;-78
2022/11/20 10:31:31;;;;;;;9.20;5.50;;;;;;;6.04;99.12;99456.94;6094201;23;20030;-79
2022/11/20 10:34:02;;;;;;;7.82;5.10;;;;;;;6.07;98.55;99461.97;6143791;23;20344;-79
2022/11/20 10:36:45;;;;;;;8.57;5.85;;;;;;;6.05;100.00;99459.44;6119318;23;20076;-78
2022/11/20 10:39:46;;;;;;;10.10;5.13;;;;;;;6.04;98.73;99449.88;6140477;23;20109;-82
2022/11/20 10:42:16;;;;;;;7.80;5.38;;;;;;;6.10;98.43;99448.56;6071105;23;20026;-80
2022/11/20 10:45:01;;;;;;;9.32;5.47;;;;;;;6.08;98.33;99448.69;6140025;23;20501;-80
2022/11/20 10:47:32;;;;;;;9.77;6.43;;;;;;;6.13;98.01;99444.84;6088097;23;20387;-80
2022/11/20 10:50:04;;;;;;;10.70;5.57;;;;;;;6.13;98.41;99444.84;6077529;23;20397;-81
2022/11/20 10:52:49;;;;;;;11.73;7.35;;;;;;;6.12;99.77;99438.75;6141285;23;20021;-80
2022/11/20 10:55:28;;;;;;;14.20;7.55;;;;;;;6.14;98.93;99441.28;6075093;23;20584;-79
2022/11/20 10:58:01;;;;;;;12.15;7.68;;;;;;;6.16;98.87;99434.94;6144561;23;20458;-80
2022/11/20 11:00:31;;;;;;;12.32;7.30;;;;;;;6.20;98.38;99430.25;6143550;23;20072;-80
2022/11/20 11:03:02;;;;;;;8.00;5.35;;;;;;;6.21;98.60;99430.13;6168796;22;20057;-79
2022/11/20 11:05:37;;;;;;;8.82;6.10;;;;;;;6.20;98.02;99430.25;6146332;23;20030;-80
2022/11/20 11:08:10;;;;;;;7.30;4.93;;;;;;;6.23;98.18;99425.59;6119692;23;20025;-79
2022/11/20 11:10:56;;;;;;;5.18;4.35;;;;;;;6.21;98.17;99438.06;6093748;23;20124;-80
2022/11/20 11:13:24;;;;;;;6.43;4.45;;;;;;;6.27;98.46;99420.91;6110031;23;20027;-80
2022/11/20 11:15:52;;;;;;;6.85;4.32;;;;;;;6.29;98.41;99425.09;6091571;23;20049;-80
2022/11/20 11:18:30;;;;;;;4.28;3.40;;;;;;;6.28;98.25;99420.81;6090477;23;20022;-80
2022/11/20 11:20:59;;;;;;;8.85;4.90;;;;;;;6.31;98.84;99425.00;6113340;23;20025;-81
2022/11/20 11:23:32;;;;;;;11.32;6.53;;;;;;;6.32;98.02;99407.38;6119706;23;20026;-79
2022/11/20 11:26:01;;;;;;;6.10;3.72;;;;;;;6.36;99.41;99409.66;6141173;23;20033;-80
2022/11/20 11:28:28;;;;;;;16.10;8.50;;;;;;;6.38;98.81;99407.72;6119339;23;20449;-79
2022/11/20 11:30:55;;;;;;;22.17;11.95;;;;;;;6.39;100.00;99396.22;6089083;23;20541;-80
2022/11/20 11:33:27;;;;;;;12.82;7.03;;;;;;;6.40;99.01;99395.25;6114311;23;20025;-81
2022/11/20 11:36:04;;;;;;;6.15;3.92;;;;;;;6.40;98.93;99402.34;6139668;23;20033;-80
2022/11/20 11:38:38;;;;;;;3.53;3.00;;;;;;;6.42;98.88;99393.34;6088361;23;20030;-81
2022/11/20 11:41:07;;;;;;;6.75;4.43;;;;;;;6.43;99.12;99396.81;6114518;23;20017;-81
2022/11/20 11:46:30;;;;;;;6.95;4.53;;;;;;;6.42;99.40;99376.69;6133518;23;20029;-80
2022/11/20 11:49:16;;;;;;;7.82;4.90;;;;;;;6.42;98.79;99382.81;6176356;22;20021;-79